Check out our new BloomSky Weather System.

Active alerts

Houston, TX
  Details for Houston, TX Dense Fog Advisory


Thunder radar  blitzortung!


Rain radar more information rain snow radar


Visit our other weather sites:

Template documentation
and downloads

And another site



Weather Underground History page Text

Daily Summary for January 31, 2017 Units:  Metric    English   Both
« Previous Day
Next Day »
Daily Weekly Monthly Yearly Custom
  High: Low: Average:
Temperature: 24.5 °C 8.7 °C 17.3 °C
Dew Point: 13.4 °C 7.8 °C 10.2 °C
Humidity: 97 % 38 % 67 %
Wind Speed: 25.7 km/h 0 km/h 4.5 km/h
Wind Gust: 29 km/h - -
Wind:- - South
Pressure: 1020.2 hPa 1015.5 hPa -
Precipitation: 0 mm    
Historical Graphs
 
 
Tabular Data for January 31, 2017
Time Temperature Dew Point Pressure Wind Wind Speed Wind Gust Humidity Rainfall Rate (Hourly)
00:04 14.3 °C 7.8 °C 1019.5 hPa SSE 3.2 km/h 9.7 km/h 65 % 0 mm
00:09 14.2 °C 7.9 °C 1019.5 hPa SSW 4.8 km/h 9.7 km/h 66 % 0 mm
00:14 14.2 °C 8.2 °C 1019.5 hPa SW 9.7 km/h 9.7 km/h 67 % 0 mm
00:19 14.1 °C 8.1 °C 1019.5 hPa South 3.2 km/h 9.7 km/h 67 % 0 mm
00:24 14.1 °C 8.3 °C 1019.5 hPa SSW 3.2 km/h 9.7 km/h 68 % 0 mm
00:29 14 °C 8.4 °C 1019.5 hPa SSW 3.2 km/h 9.7 km/h 69 % 0 mm
00:34 14 °C 8.4 °C 1019.5 hPa SSW 4.8 km/h 9.7 km/h 69 % 0 mm
00:39 14 °C 8.6 °C 1019.5 hPa Calm   9.7 km/h 70 % 0 mm
00:44 13.9 °C 8.5 °C 1019.5 hPa Calm   9.7 km/h 70 % 0 mm
00:49 13.7 °C 8.3 °C 1019.9 hPa South 1.6 km/h 8 km/h 70 % 0 mm
00:54 13.5 °C 8.3 °C 1019.5 hPa Calm   8 km/h 71 % 0 mm
00:59 13.3 °C 8.4 °C 1019.9 hPa Calm   3.2 km/h 72 % 0 mm
01:04 13.2 °C 8.5 °C 1019.9 hPa Calm   3.2 km/h 73 % 0 mm
01:09 13.2 °C 8.7 °C 1019.9 hPa Calm   6.4 km/h 74 % 0 mm
01:15 13.1 °C 8.8 °C 1019.9 hPa Calm   6.4 km/h 75 % 0 mm
01:20 13 °C 8.7 °C 1019.9 hPa Calm   6.4 km/h 75 % 0 mm
01:25 12.8 °C 8.5 °C 1019.9 hPa Calm   3.2 km/h 75 % 0 mm
01:30 12.5 °C 8.2 °C 1019.9 hPa Calm   1.6 km/h 75 % 0 mm
01:35 12.3 °C 8.6 °C 1019.9 hPa Calm     78 % 0 mm
01:40 12.2 °C 8.7 °C 1019.9 hPa Calm     79 % 0 mm
01:45 12.1 °C 8.6 °C 1019.9 hPa Calm   3.2 km/h 79 % 0 mm
01:50 11.9 °C 8.4 °C 1019.9 hPa Calm   3.2 km/h 79 % 0 mm
01:55 11.6 °C 8.1 °C 1019.9 hPa Calm   1.6 km/h 79 % 0 mm
02:00 11.4 °C 8.3 °C 1019.9 hPa Calm   1.6 km/h 81 % 0 mm
02:05 11.4 °C 8.8 °C 1019.9 hPa Calm   3.2 km/h 84 % 0 mm
02:10 11.4 °C 8.8 °C 1019.9 hPa Calm   3.2 km/h 84 % 0 mm
02:15 11.4 °C 8.8 °C 1019.9 hPa Calm   3.2 km/h 84 % 0 mm
02:20 11.4 °C 9 °C 1019.9 hPa Calm   1.6 km/h 85 % 0 mm
02:25 11.3 °C 8.9 °C 1019.5 hPa Calm     85 % 0 mm
02:35 11.7 °C 9.6 °C 1019.5 hPa SSW 1.6 km/h 4.8 km/h 87 % 0 mm
02:40 11.9 °C 9.8 °C 1019.5 hPa SSW 3.2 km/h 4.8 km/h 87 % 0 mm
02:45 12.2 °C 10.1 °C 1019.2 hPa SSW 3.2 km/h 6.4 km/h 87 % 0 mm
02:50 12.3 °C 10.2 °C 1019.5 hPa SW 3.2 km/h 6.4 km/h 87 % 0 mm
02:55 12.6 °C 10.3 °C 1019.2 hPa South 4.8 km/h 6.4 km/h 86 % 0 mm
03:00 12.7 °C 10.4 °C 1019.5 hPa SSE 4.8 km/h 8 km/h 86 % 0 mm
03:05 12.9 °C 10.6 °C 1019.2 hPa SSE 4.8 km/h 8 km/h 86 % 0 mm
03:10 12.9 °C 10.6 °C 1019.2 hPa South 4.8 km/h 8 km/h 86 % 0 mm
03:16 12.9 °C 10.6 °C 1019.2 hPa SW 4.8 km/h 8 km/h 86 % 0 mm
03:21 12.9 °C 10.6 °C 1019.2 hPa SSW 3.2 km/h 8 km/h 86 % 0 mm
03:26 12.9 °C 10.6 °C 1019.2 hPa SSW 1.6 km/h 8 km/h 86 % 0 mm
03:31 12.8 °C 10.5 °C 1019.2 hPa South 1.6 km/h 8 km/h 86 % 0 mm
03:36 12.7 °C 10.4 °C 1019.2 hPa SSW 1.6 km/h 8 km/h 86 % 0 mm
03:41 12.6 °C 10.5 °C 1019.2 hPa SSW 1.6 km/h 8 km/h 87 % 0 mm
03:46 12.5 °C 10.4 °C 1019.2 hPa SSW 4.8 km/h 4.8 km/h 87 % 0 mm
03:51 12.5 °C 10.4 °C 1019.2 hPa SSW 1.6 km/h 8 km/h 87 % 0 mm
03:56 12.4 °C 10.5 °C 1019.2 hPa Calm   8 km/h 88 % 0 mm
04:02 12.4 °C 10.5 °C 1019.2 hPa SSW 3.2 km/h 8 km/h 88 % 0 mm
04:07 12.3 °C 10.4 °C 1019.2 hPa Calm   6.4 km/h 88 % 0 mm
04:12 12.3 °C 10.4 °C 1019.2 hPa Calm   4.8 km/h 88 % 0 mm
04:17 12.2 °C 10.4 °C 1019.2 hPa Calm   4.8 km/h 89 % 0 mm
04:22 12.1 °C 10.3 °C 1019.2 hPa Calm   4.8 km/h 89 % 0 mm
04:27 12 °C 10.2 °C 1019.5 hPa Calm   4.8 km/h 89 % 0 mm
04:32 11.8 °C 10 °C 1019.5 hPa Calm   3.2 km/h 89 % 0 mm
04:37 11.7 °C 9.9 °C 1019.2 hPa Calm   3.2 km/h 89 % 0 mm
04:42 11.6 °C 10 °C 1019.2 hPa SSE 1.6 km/h 1.6 km/h 90 % 0 mm
04:47 11.6 °C 10.2 °C 1019.2 hPa South 1.6 km/h 3.2 km/h 91 % 0 mm
04:52 11.6 °C 10.2 °C 1019.2 hPa Calm   3.2 km/h 91 % 0 mm
04:57 11.7 °C 10.4 °C 1019.2 hPa Calm   4.8 km/h 92 % 0 mm
05:02 11.6 °C 10.3 °C 1019.2 hPa Calm   4.8 km/h 92 % 0 mm
05:07 11.6 °C 10.3 °C 1019.5 hPa Calm   4.8 km/h 92 % 0 mm
05:12 11.4 °C 10.1 °C 1019.5 hPa Calm   3.2 km/h 92 % 0 mm
05:17 11.3 °C 10 °C 1019.5 hPa Calm   1.6 km/h 92 % 0 mm
05:22 11.2 °C 9.9 °C 1019.5 hPa Calm   1.6 km/h 92 % 0 mm
05:27 11 °C 9.8 °C 1019.5 hPa Calm   1.6 km/h 92 % 0 mm
05:32 10.9 °C 9.7 °C 1019.5 hPa Calm   1.6 km/h 92 % 0 mm
05:37 10.8 °C 9.7 °C 1019.5 hPa Calm   1.6 km/h 93 % 0 mm
05:42 10.6 °C 9.4 °C 1019.5 hPa Calm   1.6 km/h 92 % 0 mm
05:47 10.4 °C 9.3 °C 1019.5 hPa Calm     93 % 0 mm
05:52 10.2 °C 9.1 °C 1019.5 hPa Calm   1.6 km/h 93 % 0 mm
05:57 10.1 °C 9 °C 1019.5 hPa Calm   1.6 km/h 93 % 0 mm
06:02 9.9 °C 8.8 °C 1019.5 hPa Calm   1.6 km/h 93 % 0 mm
06:07 9.7 °C 8.6 °C 1019.5 hPa Calm     93 % 0 mm
06:12 9.6 °C 8.7 °C 1019.5 hPa Calm     94 % 0 mm
06:17 9.5 °C 8.6 °C 1019.5 hPa Calm     94 % 0 mm
06:22 9.7 °C 8.8 °C 1019.5 hPa SSE 1.6 km/h 1.6 km/h 94 % 0 mm
06:27 9.9 °C 9.1 °C 1019.2 hPa Calm   1.6 km/h 95 % 0 mm
06:32 10.1 °C 9.3 °C 1019.5 hPa Calm   1.6 km/h 95 % 0 mm
06:35 10.1 °C 9.3 °C 1019.5 hPa SSE 1.6 km/h 1.6 km/h 95 % 0 mm
06:40 10 °C 9.2 °C 1019.5 hPa Calm   3.2 km/h 95 % 0 mm
06:45 9.8 °C 8.9 °C 1019.5 hPa Calm   3.2 km/h 94 % 0 mm
06:50 9.6 °C 8.7 °C 1019.5 hPa Calm   3.2 km/h 94 % 0 mm
06:55 9.4 °C 8.6 °C 1019.5 hPa Calm     95 % 0 mm
07:00 9.3 °C 8.4 °C 1019.5 hPa Calm     94 % 0 mm
07:05 9 °C 8.1 °C 1019.5 hPa Calm     94 % 0 mm
07:10 8.9 °C 8.1 °C 1019.9 hPa Calm     95 % 0 mm
07:15 8.9 °C 8.1 °C 1019.9 hPa Calm     95 % 0 mm
07:20 8.9 °C 8.1 °C 1019.9 hPa Calm     95 % 0 mm
07:25 8.9 °C 8.1 °C 1019.9 hPa Calm     95 % 0 mm
07:30 8.7 °C 7.9 °C 1019.9 hPa Calm     95 % 0 mm
07:36 8.7 °C 7.9 °C 1019.9 hPa Calm     95 % 0 mm
07:40 8.9 °C 8.1 °C 1019.9 hPa Calm     95 % 0 mm
07:46 9.1 °C 8.5 °C 1019.9 hPa Calm     96 % 0 mm
07:51 9.2 °C 8.6 °C 1019.9 hPa Calm     96 % 0 mm
07:56 9.8 °C 9.3 °C 1019.9 hPa Calm     97 % 0 mm
08:01 10.3 °C 9.8 °C 1019.9 hPa Calm     97 % 0 mm
08:06 11.2 °C 10.7 °C 1019.9 hPa ESE 1.6 km/h   97 % 0 mm
08:11 11.6 °C 11.1 °C 1019.9 hPa Calm   3.2 km/h 97 % 0 mm
08:16 11.9 °C 11.3 °C 1019.9 hPa Calm   3.2 km/h 96 % 0 mm
08:21 12.2 °C 11.4 °C 1019.9 hPa South 3.2 km/h 3.2 km/h 95 % 0 mm
08:26 12.4 °C 11.3 °C 1019.9 hPa South 3.2 km/h 8 km/h 93 % 0 mm
08:31 12.7 °C 11.4 °C 1019.9 hPa SW 3.2 km/h 8 km/h 92 % 0 mm
08:36 13.1 °C 11.5 °C 1019.9 hPa SSW 4.8 km/h 8 km/h 90 % 0 mm
08:41 13.4 °C 11.3 °C 1019.9 hPa SSW 4.8 km/h 8 km/h 87 % 0 mm
08:46 13.7 °C 11 °C 1019.9 hPa SW 8 km/h 8 km/h 84 % 0 mm
08:51 14.1 °C 10.9 °C 1019.9 hPa SSW 9.7 km/h 9.7 km/h 81 % 0 mm
08:56 14.3 °C 10.3 °C 1019.9 hPa SW 6.4 km/h 12.9 km/h 77 % 0 mm
09:01 14.7 °C 10.1 °C 1020.2 hPa South 9.7 km/h 12.9 km/h 74 % 0 mm
09:06 15.1 °C 9.9 °C 1019.9 hPa SSW 9.7 km/h 14.5 km/h 71 % 0 mm
09:11 15.4 °C 9.7 °C 1020.2 hPa SW 4.8 km/h 14.5 km/h 69 % 0 mm
09:16 15.7 °C 9.4 °C 1019.9 hPa SE 6.4 km/h 14.5 km/h 66 % 0 mm
09:21 16.1 °C 9.5 °C 1020.2 hPa WSW 9.7 km/h 17.7 km/h 65 % 0 mm
09:26 16.3 °C 9.2 °C 1020.2 hPa SSW 4.8 km/h 17.7 km/h 63 % 0 mm
09:31 16.4 °C 8.9 °C 1020.2 hPa SW 9.7 km/h 17.7 km/h 61 % 0 mm
09:36 16.8 °C 9.5 °C 1020.2 hPa SW 8 km/h 17.7 km/h 62 % 0 mm
09:41 17.1 °C 9 °C 1020.2 hPa SE 3.2 km/h 17.7 km/h 59 % 0 mm
09:46 17.3 °C 9 °C 1020.2 hPa SSW 3.2 km/h 19.3 km/h 58 % 0 mm
09:51 17.7 °C 8.8 °C 1020.2 hPa South 8 km/h 19.3 km/h 56 % 0 mm
09:56 18 °C 8.8 °C 1020.2 hPa SW 6.4 km/h 19.3 km/h 55 % 0 mm
10:01 18.3 °C 8.6 °C 1020.2 hPa SW 25.7 km/h 25.7 km/h 53 % 0 mm
10:06 18.6 °C 8.8 °C 1020.2 hPa South 9.7 km/h 25.7 km/h 53 % 0 mm
10:07 18.6 °C 8.6 °C 1020.2 hPa SSW 9.7 km/h 25.7 km/h 52 % 0 mm
10:12 18.8 °C 8.7 °C 1020.2 hPa SSW 12.9 km/h 25.7 km/h 52 % 0 mm
10:17 19.1 °C 8.7 °C 1020.2 hPa SSE 4.8 km/h 25.7 km/h 51 % 0 mm
10:22 19.4 °C 8.7 °C 1020.2 hPa SSW 3.2 km/h 22.5 km/h 50 % 0 mm
10:27 19.8 °C 8.5 °C 1020.2 hPa SW 6.4 km/h 17.7 km/h 48 % 0 mm
10:32 19.9 °C 8.3 °C 1020.2 hPa WSW 14.5 km/h 16.1 km/h 47 % 0 mm
10:37 19.9 °C 8.3 °C 1020.2 hPa SSW 8 km/h 22.5 km/h 47 % 0 mm
10:42 20 °C 8.3 °C 1020.2 hPa SW 3.2 km/h 24.1 km/h 47 % 0 mm
10:47 20.2 °C 8.2 °C 1020.2 hPa SW 16.1 km/h 24.1 km/h 46 % 0 mm
10:52 20.2 °C 8.5 °C 1020.2 hPa SW 9.7 km/h 24.1 km/h 47 % 0 mm
10:57 20.6 °C 8.6 °C 1020.2 hPa SW 14.5 km/h 22.5 km/h 46 % 0 mm
11:02 20.7 °C 8.7 °C 1020.2 hPa SSW 6.4 km/h 22.5 km/h 46 % 0 mm
11:08 20.9 °C 8.5 °C 1020.2 hPa WSW 4.8 km/h 17.7 km/h 45 % 0 mm
11:13 21.1 °C 8.7 °C 1020.2 hPa SSW 9.7 km/h 17.7 km/h 45 % 0 mm
11:18 21.1 °C 8.4 °C 1019.9 hPa SSE 11.3 km/h 17.7 km/h 44 % 0 mm
11:23 21.4 °C 9 °C 1019.9 hPa West 8 km/h 16.1 km/h 45 % 0 mm
11:28 21.6 °C 8.5 °C 1019.9 hPa SSW 8 km/h 16.1 km/h 43 % 0 mm
11:33 21.9 °C 8.8 °C 1019.9 hPa SW 3.2 km/h 16.1 km/h 43 % 0 mm
11:38 22.1 °C 8.9 °C 1019.9 hPa SW 11.3 km/h 12.9 km/h 43 % 0 mm
11:43 22.4 °C 8.5 °C 1019.9 hPa SW 6.4 km/h 14.5 km/h 41 % 0 mm
11:48 22.5 °C 8.6 °C 1019.5 hPa SSW 3.2 km/h 17.7 km/h 41 % 0 mm
11:53 22.7 °C 8.4 °C 1019.5 hPa SW 1.6 km/h 17.7 km/h 40 % 0 mm
11:58 22.9 °C 9.3 °C 1019.5 hPa Calm   17.7 km/h 42 % 0 mm
12:03 23.1 °C 8.8 °C 1019.5 hPa West 6.4 km/h 11.3 km/h 40 % 0 mm
12:08 23.2 °C 9.2 °C 1019.2 hPa WSW 3.2 km/h 11.3 km/h 41 % 0 mm
12:13 23.5 °C 9.1 °C 1019.2 hPa NNW 3.2 km/h 11.3 km/h 40 % 0 mm
12:18 23.7 °C 8.9 °C 1019.2 hPa South 14.5 km/h 14.5 km/h 39 % 0 mm
12:23 23.3 °C 8.9 °C 1018.8 hPa SSE 11.3 km/h 19.3 km/h 40 % 0 mm
12:28 23.2 °C 8.9 °C 1018.8 hPa NNW 1.6 km/h 19.3 km/h 40 % 0 mm
12:33 23.3 °C 8.9 °C 1018.8 hPa South 3.2 km/h 19.3 km/h 40 % 0 mm
12:38 23.8 °C 9.4 °C 1018.5 hPa WSW 9.7 km/h 14.5 km/h 40 % 0 mm
12:43 23.7 °C 9.3 °C 1018.5 hPa SSW 4.8 km/h 14.5 km/h 40 % 0 mm
12:48 23.8 °C 9 °C 1018.5 hPa SSW 3.2 km/h 14.5 km/h 39 % 0 mm
12:53 23.6 °C 8.4 °C 1018.5 hPa SSW 11.3 km/h 20.9 km/h 38 % 0 mm
12:59 23.3 °C 8.9 °C 1018.2 hPa SW 4.8 km/h 20.9 km/h 40 % 0 mm
13:04 23.6 °C 9.6 °C 1018.2 hPa SSE 9.7 km/h 20.9 km/h 41 % 0 mm
13:09 23.5 °C 9.1 °C 1017.8 hPa SSW 8 km/h 19.3 km/h 40 % 0 mm
13:14 23.4 °C 9.8 °C 1017.8 hPa South 8 km/h 20.9 km/h 42 % 0 mm
13:19 23.3 °C 9.3 °C 1017.8 hPa South 6.4 km/h 20.9 km/h 41 % 0 mm
13:24 23.6 °C 10.3 °C 1017.8 hPa SSW 6.4 km/h 20.9 km/h 43 % 0 mm
13:29 23.7 °C 10 °C 1017.8 hPa SW 12.9 km/h 16.1 km/h 42 % 0 mm
13:34 23.4 °C 10.1 °C 1017.5 hPa SSW 1.6 km/h 16.1 km/h 43 % 0 mm
13:39 23.6 °C 10.3 °C 1017.5 hPa SSW 11.3 km/h 16.1 km/h 43 % 0 mm
13:44 23.7 °C 10 °C 1017.2 hPa SSW 4.8 km/h 22.5 km/h 42 % 0 mm
13:49 23.8 °C 10.1 °C 1017.2 hPa SSW 8 km/h 22.5 km/h 42 % 0 mm
13:54 23.8 °C 10.1 °C 1017.2 hPa SW 3.2 km/h 22.5 km/h 42 % 0 mm
13:59 23.9 °C 9.5 °C 1017.2 hPa SSW 6.4 km/h 16.1 km/h 40 % 0 mm
14:04 23.9 °C 9.5 °C 1017.2 hPa SSE 9.7 km/h 19.3 km/h 40 % 0 mm
14:09 23.8 °C 9.8 °C 1016.8 hPa South 4.8 km/h 19.3 km/h 41 % 0 mm
14:14 24 °C 9.6 °C 1016.8 hPa SSE 9.7 km/h 19.3 km/h 40 % 0 mm
14:19 23.9 °C 9.5 °C 1016.8 hPa SE 11.3 km/h 19.3 km/h 40 % 0 mm
14:24 23.8 °C 9 °C 1016.8 hPa SSE 4.8 km/h 20.9 km/h 39 % 0 mm
14:29 23.8 °C 9.8 °C 1016.5 hPa SSW 9.7 km/h 22.5 km/h 41 % 0 mm
14:34 23.9 °C 9.8 °C 1016.5 hPa South 14.5 km/h 22.5 km/h 41 % 0 mm
14:39 23.9 °C 9.8 °C 1016.5 hPa SE 12.9 km/h 22.5 km/h 41 % 0 mm
14:45 23.9 °C 9.8 °C 1016.5 hPa ESE 9.7 km/h 22.5 km/h 41 % 0 mm
14:50 23.9 °C 10.2 °C 1016.1 hPa SE 12.9 km/h 22.5 km/h 42 % 0 mm
14:55 23.9 °C 10.2 °C 1016.1 hPa SSE 4.8 km/h 29 km/h 42 % 0 mm
15:00 23.9 °C 10.2 °C 1016.1 hPa South 14.5 km/h 29 km/h 42 % 0 mm
15:05 24.1 °C 11.1 °C 1016.1 hPa SW 9.7 km/h 29 km/h 44 % 0 mm
15:10 24.2 °C 11.2 °C 1016.1 hPa SSE 4.8 km/h 19.3 km/h 44 % 0 mm
15:15 24.2 °C 10.8 °C 1015.8 hPa SSE 6.4 km/h 19.3 km/h 43 % 0 mm
15:20 24.2 °C 10.8 °C 1015.8 hPa SSW 9.7 km/h 19.3 km/h 43 % 0 mm
15:25 24.2 °C 10.8 °C 1015.8 hPa SSW 6.4 km/h 20.9 km/h 43 % 0 mm
15:30 24.4 °C 11 °C 1015.8 hPa SSE 6.4 km/h 20.9 km/h 43 % 0 mm
15:35 24.5 °C 10 °C 1015.8 hPa SE 11.3 km/h 20.9 km/h 40 % 0 mm
15:40 24.4 °C 9.9 °C 1015.8 hPa South 6.4 km/h 14.5 km/h 40 % 0 mm
15:45 24.3 °C 10.2 °C 1015.8 hPa South 6.4 km/h 14.5 km/h 41 % 0 mm
15:50 24.5 °C 10.4 °C 1015.8 hPa SSW 9.7 km/h 14.5 km/h 41 % 0 mm
15:55 24.4 °C 10.7 °C 1015.8 hPa SW 8 km/h 20.9 km/h 42 % 0 mm
16:00 24.2 °C 10.5 °C 1015.8 hPa South 8 km/h 20.9 km/h 42 % 0 mm
16:05 24.2 °C 11.2 °C 1015.8 hPa South 11.3 km/h 20.9 km/h 44 % 0 mm
16:10 24.1 °C 10.7 °C 1016.1 hPa South 3.2 km/h 16.1 km/h 43 % 0 mm
16:15 24.2 °C 10.1 °C 1016.1 hPa SSW 11.3 km/h 19.3 km/h 41 % 0 mm
16:20 24.2 °C 10.1 °C 1016.1 hPa SW 4.8 km/h 19.3 km/h 41 % 0 mm
16:25 24.3 °C 10.6 °C 1016.1 hPa SSW 12.9 km/h 20.9 km/h 42 % 0 mm
16:30 24.1 °C 10.7 °C 1016.1 hPa SSE 9.7 km/h 20.9 km/h 43 % 0 mm
16:35 23.9 °C 10.9 °C 1016.1 hPa SSE 8 km/h 20.9 km/h 44 % 0 mm
16:40 23.9 °C 11.2 °C 1016.1 hPa SSW 8 km/h 17.7 km/h 45 % 0 mm
16:45 23.8 °C 10.8 °C 1016.1 hPa WSW 8 km/h 17.7 km/h 44 % 0 mm
16:50 23.8 °C 10.8 °C 1015.8 hPa South 6.4 km/h 14.5 km/h 44 % 0 mm
16:56 23.8 °C 10.8 °C 1015.8 hPa SSW 6.4 km/h 14.5 km/h 44 % 0 mm
17:01 23.6 °C 10.6 °C 1015.8 hPa SSW 4.8 km/h 17.7 km/h 44 % 0 mm
17:06 23.5 °C 10.5 °C 1015.8 hPa SSW 9.7 km/h 17.7 km/h 44 % 0 mm
17:11 23.4 °C 10.8 °C 1015.8 hPa South 4.8 km/h 17.7 km/h 45 % 0 mm
17:16 23.4 °C 11.4 °C 1015.8 hPa South 4.8 km/h 17.7 km/h 47 % 0 mm
17:21 23.3 °C 11 °C 1015.8 hPa SSW 8 km/h 17.7 km/h 46 % 0 mm
17:26 23.1 °C 10.5 °C 1015.8 hPa SSW 4.8 km/h 17.7 km/h 45 % 0 mm
17:31 22.8 °C 10.2 °C 1015.8 hPa SSW 6.4 km/h 17.7 km/h 45 % 0 mm
17:33 22.8 °C 10.2 °C 1015.8 hPa SSW 6.4 km/h 17.7 km/h 45 % 0 mm
17:38 22.6 °C 10.4 °C 1015.8 hPa SE 3.2 km/h 14.5 km/h 46 % 0 mm
17:43 22.4 °C 10.2 °C 1015.8 hPa South 1.6 km/h 14.5 km/h 46 % 0 mm
17:48 22.2 °C 10.4 °C 1015.8 hPa SSW 4.8 km/h 11.3 km/h 47 % 0 mm
17:53 21.9 °C 10.4 °C 1015.8 hPa SSE 4.8 km/h 9.7 km/h 48 % 0 mm
17:58 21.7 °C 10.5 °C 1015.8 hPa SSW 4.8 km/h 12.9 km/h 49 % 0 mm
18:03 21.6 °C 10.4 °C 1015.8 hPa SSE 4.8 km/h 12.9 km/h 49 % 0 mm
18:08 21.5 °C 10.3 °C 1015.8 hPa SSE 3.2 km/h 14.5 km/h 49 % 0 mm
18:13 21.3 °C 10.5 °C 1015.8 hPa South 3.2 km/h 14.5 km/h 50 % 0 mm
18:18 21.1 °C 10.3 °C 1015.8 hPa South 11.3 km/h 14.5 km/h 50 % 0 mm
18:23 20.9 °C 10.1 °C 1015.5 hPa SSE 3.2 km/h 11.3 km/h 50 % 0 mm
18:28 20.8 °C 10.3 °C 1015.8 hPa South 6.4 km/h 11.3 km/h 51 % 0 mm
18:33 20.7 °C 10.2 °C 1015.5 hPa South 6.4 km/h 11.3 km/h 51 % 0 mm
18:38 20.7 °C 10.2 °C 1015.5 hPa SSW 3.2 km/h 9.7 km/h 51 % 0 mm
18:43 20.5 °C 10.3 °C 1015.8 hPa SSW 3.2 km/h 11.3 km/h 52 % 0 mm
18:48 20.4 °C 10.5 °C 1015.8 hPa SSE 3.2 km/h 11.3 km/h 53 % 0 mm
18:53 20.2 °C 10.3 °C 1015.8 hPa South 4.8 km/h 11.3 km/h 53 % 0 mm
18:58 20.1 °C 10.5 °C 1015.8 hPa SE 1.6 km/h 11.3 km/h 54 % 0 mm
19:03 20 °C 10.7 °C 1015.8 hPa SSE 4.8 km/h 11.3 km/h 55 % 0 mm
19:09 19.9 °C 10.6 °C 1015.8 hPa SSW 4.8 km/h 8 km/h 55 % 0 mm
19:14 19.8 °C 10.8 °C 1015.8 hPa SSW 4.8 km/h 9.7 km/h 56 % 0 mm
19:19 19.7 °C 10.9 °C 1015.8 hPa SSW 4.8 km/h 12.9 km/h 57 % 0 mm
19:24 19.7 °C 11.5 °C 1015.8 hPa ESE 4.8 km/h 14.5 km/h 59 % 0 mm
19:29 19.6 °C 11.6 °C 1015.8 hPa SSE 14.5 km/h 14.5 km/h 60 % 0 mm
19:34 19.7 °C 12.2 °C 1015.8 hPa SSW 8 km/h 14.5 km/h 62 % 0 mm
19:39 19.6 °C 12.4 °C 1015.8 hPa SSW 3.2 km/h 14.5 km/h 63 % 0 mm
19:44 19.6 °C 12.6 °C 1015.8 hPa SE 9.7 km/h 14.5 km/h 64 % 0 mm
19:49 19.5 °C 12.7 °C 1015.8 hPa SE 8 km/h 16.1 km/h 65 % 0 mm
19:54 19.4 °C 12.7 °C 1015.8 hPa South 6.4 km/h 17.7 km/h 65 % 0 mm
19:59 19.3 °C 12.8 °C 1015.8 hPa SE 4.8 km/h 17.7 km/h 66 % 0 mm
20:04 19.2 °C 12.7 °C 1015.8 hPa SSW 6.4 km/h 17.7 km/h 66 % 0 mm
20:09 19.1 °C 12.8 °C 1015.8 hPa SSE 11.3 km/h 14.5 km/h 67 % 0 mm
20:14 19.1 °C 12.8 °C 1015.8 hPa SE 8 km/h 17.7 km/h 67 % 0 mm
20:19 19 °C 12.7 °C 1015.8 hPa SSE 9.7 km/h 17.7 km/h 67 % 0 mm
20:24 18.9 °C 12.9 °C 1015.8 hPa SSE 6.4 km/h 17.7 km/h 68 % 0 mm
20:29 18.8 °C 12.8 °C 1015.8 hPa SSW 9.7 km/h 16.1 km/h 68 % 0 mm
20:34 18.8 °C 12.8 °C 1015.8 hPa SE 14.5 km/h 16.1 km/h 68 % 0 mm
20:39 18.7 °C 12.9 °C 1015.8 hPa South 11.3 km/h 14.5 km/h 69 % 0 mm
20:44 18.6 °C 12.8 °C 1015.8 hPa South 1.6 km/h 14.5 km/h 69 % 0 mm
20:49 18.6 °C 12.8 °C 1015.8 hPa SE 6.4 km/h 14.5 km/h 69 % 0 mm
20:54 18.4 °C 12.8 °C 1015.8 hPa SSE 6.4 km/h 11.3 km/h 70 % 0 mm
20:59 18.4 °C 13 °C 1015.8 hPa SSE 6.4 km/h 11.3 km/h 71 % 0 mm
21:04 18.3 °C 13 °C 1015.8 hPa South 8 km/h 11.3 km/h 71 % 0 mm
21:09 18.2 °C 13.1 °C 1015.8 hPa SSE 3.2 km/h 11.3 km/h 72 % 0 mm
21:14 18.1 °C 13 °C 1015.8 hPa South 3.2 km/h 9.7 km/h 72 % 0 mm
21:20 18.1 °C 13.2 °C 1015.8 hPa SE 4.8 km/h 11.3 km/h 73 % 0 mm
21:25 17.9 °C 13 °C 1015.8 hPa SE 3.2 km/h 11.3 km/h 73 % 0 mm
21:30 17.8 °C 13.1 °C 1016.1 hPa SSE 1.6 km/h 11.3 km/h 74 % 0 mm
21:35 17.7 °C 13.2 °C 1016.1 hPa SE 1.6 km/h 6.4 km/h 75 % 0 mm
21:40 17.6 °C 13.1 °C 1016.1 hPa Calm   4.8 km/h 75 % 0 mm
21:45 17.3 °C 12.8 °C 1016.1 hPa Calm   4.8 km/h 75 % 0 mm
21:50 17.2 °C 12.9 °C 1016.1 hPa ESE 3.2 km/h 4.8 km/h 76 % 0 mm
21:55 17.1 °C 13 °C 1016.1 hPa SE 1.6 km/h 4.8 km/h 77 % 0 mm
22:00 16.9 °C 13 °C 1016.1 hPa SE 1.6 km/h 6.4 km/h 78 % 0 mm
22:05 16.8 °C 12.9 °C 1016.1 hPa SSE 3.2 km/h 6.4 km/h 78 % 0 mm
22:10 16.7 °C 13 °C 1016.1 hPa South 1.6 km/h 6.4 km/h 79 % 0 mm
22:15 16.7 °C 13.2 °C 1016.1 hPa SE 1.6 km/h 4.8 km/h 80 % 0 mm
22:20 16.6 °C 13.1 °C 1016.1 hPa SE 1.6 km/h 4.8 km/h 80 % 0 mm
22:25 16.5 °C 13 °C 1016.1 hPa SE 3.2 km/h 4.8 km/h 80 % 0 mm
22:35 16.4 °C 13.3 °C 1016.1 hPa SSE 3.2 km/h 6.4 km/h 82 % 0 mm
22:40 16.3 °C 13.2 °C 1016.1 hPa South 4.8 km/h 6.4 km/h 82 % 0 mm
22:45 16.3 °C 13.4 °C 1016.1 hPa SE 1.6 km/h 6.4 km/h 83 % 0 mm
22:50 16.2 °C 13.3 °C 1016.1 hPa Calm   4.8 km/h 83 % 0 mm
22:55 16.1 °C 13.2 °C 1016.1 hPa SE 1.6 km/h 4.8 km/h 83 % 0 mm
23:00 16 °C 13.3 °C 1016.1 hPa South 1.6 km/h 3.2 km/h 84 % 0 mm
23:05 15.8 °C 13.1 °C 1016.1 hPa Calm   3.2 km/h 84 % 0 mm
23:10 15.8 °C 13.3 °C 1016.1 hPa SE 1.6 km/h 3.2 km/h 85 % 0 mm
23:15 15.7 °C 13.2 °C 1016.1 hPa Calm   3.2 km/h 85 % 0 mm
23:20 15.6 °C 13.3 °C 1016.1 hPa Calm   3.2 km/h 86 % 0 mm
23:25 15.5 °C 13.2 °C 1016.1 hPa Calm   3.2 km/h 86 % 0 mm
23:31 15.4 °C 13.2 °C 1016.1 hPa Calm   3.2 km/h 87 % 0 mm
23:36 15.4 °C 13.2 °C 1016.1 hPa Calm   1.6 km/h 87 % 0 mm
23:41 15.2 °C 13 °C 1016.1 hPa Calm   1.6 km/h 87 % 0 mm
23:46 15.1 °C 13.1 °C 1016.1 hPa Calm   1.6 km/h 88 % 0 mm
23:51 14.9 °C 12.9 °C 1016.1 hPa Calm   1.6 km/h 88 % 0 mm
23:56 14.8 °C 12.8 °C 1016.1 hPa Calm   1.6 km/h 88 % 0 mm
Spring, Texas: Villages of Bridgestone
Compliments of Weather Underground - 3.25 mb

Script developed by  Jim McMurry - jmcmurry@mwt.net Adapted for the template by  Wim van der Kuil - Leuven-Template.eu

You find our weather info also at:

UK Metoffice

WeatherCloud

Weather Underground

Mid-South Weather Network

AWEKAS

Citizen Weather Observer Program (CWOP)

HAMweather, WeatherForYou, PWS Weather

Equipment we use:

Weather-station
Davis Vantage Vue

Weather-program
Meteohub

Weather-server
Debian 7.9 x86 (Guest)

Provider
DreamHost

Davis Vantage Vue

Meteohub

Debian 7.9 x86 (Guest)

DreamHost